AirNav   Pilot Hours Calculator
 
 983 users online  

21GE Deer Crossing Airport
Cleveland, Georgia, USA

GOING TO CLEVELAND?


FAA INFORMATION EFFECTIVE 15 AUGUST 2019

Location

FAA Identifier: 21GE
Lat/Long: 34-32-59.0000N 083-49-20.0000W
34-32.983333N 083-49.333333W
34.5497222,-83.8222222
(estimated)
Elevation: 1390 ft. / 423.7 m (surveyed)
From city: 4 miles SW of CLEVELAND, GA
Time zone: UTC -4 (UTC -5 during Standard Time)
Zip code: 30528

Airport Operations

Airport use: Private use. Permission required prior to landing
Activation date: 10/2005
Control tower: no
ARTCC: ATLANTA CENTER
FSS: MACON FLIGHT SERVICE STATION
Attendance: IRREG
Segmented circle: no

Airport Communications

WX AWOS-3 at AJR (13 nm E): 119.175 (706-778-3675)
WX ASOS at GVL (17 nm S): 126.475 (770-532-4687)

Nearby radio navigation aids

VOR radial/distance  VOR name  Freq  Var
HRSr169/24.0HARRIS VORTAC109.8000E
ODFr251/27.3FOOTHILLS VORTAC113.4000E

 
NDB name  Hdg/Dist  Freq  Var  ID
FLOWERY BRANCH014/21.236503WFKV ..-. -.- ...-
CHERO067/37.541505WDJD -.. .--- -..
BARROW COUNTY348/38.640405WBMW -... -- .--

Airport Services

Runway Information

Runway 3/21

Dimensions: 1600 x 120 ft. / 488 x 37 m
Surface: turf
RUNWAY 3  RUNWAY 21
Traffic pattern: leftleft

Airport Ownership and Management from official FAA records

Ownership: Privately-owned
Owner: GEORGE TAYLOR
2155 THOMAS ROAD
CLEVELAND, GA 30528
Phone 706-865-4665
Manager: GEORGE TAYLOR
2155 THOMAS ROAD
CLEVELAND, GA 30528
Phone 706-865-4665

Airport Operational Statistics

Aircraft based on the field: 1
Single engine airplanes: 1
    

Additional Remarks

DEER ON & INVOF ARPT.
RY SHARED WITH HAYFIELD.
OWNER DESIRES APRT NOT BE CHARTED.
FOR CD CTC ATLANTA ARTCC AT 770-210-7692.

Instrument Procedures

There are no published instrument procedures at 21GE.

Some nearby airports with instrument procedures:

KAJR - Habersham County Airport (13 nm E)
KGVL - Lee Gilmer Memorial Airport (17 nm S)
KDZJ - Blairsville Airport (20 nm NW)
KJCA - Jackson County Airport (26 nm SE)
KTOC - Toccoa Airport-RG Letourneau Field (26 nm E)
 
Loc | Ops | Rwys | IFR | FBO | Links
Com | Nav | Svcs | Stats | Notes
Area around 21GE (Deer Crossing Airport)
 
Road maps at: MapQuest Bing Google
 
Aerial photo
No photo
 
Sectional chart

 
Airport distance calculator
Flying to Deer Crossing Airport? Find the distance to fly.

From to 21GE

Sunrise and sunset
Times for 24-Aug-2019
 Local
(UTC-4)
 Zulu
(UTC)
Morning civil twilight06:3710:37
Sunrise07:0411:04
Sunset20:1200:12
Evening civil twilight20:3800:38

Current date and time
Zulu (UTC)  24-Aug-2019 14:43:20
Local (UTC-4)  24-Aug-2019 10:43:20
 
METAR
KAJR 
13nm E 
241415Z AUTO 07006KT 10SM SCT020 26/21 A3011 RMK AO2 T02590212
KGVL 
17nm S 
241353Z AUTO 30006KT 10SM CLR 27/22 A3011 RMK AO2 RAB13E49 SLP179 P0000 T02670217
KDZJ 
20nm NW 
241415Z AUTO 00000KT 10SM OVC003 20/20 A3015 RMK AO2 T02040201
KJCA 
26nm SE 
241410Z AUTO 15003KT 10SM CLR 24/22 A3010 RMK AO2 T02430221
KTOC 
26nm E 
241415Z AUTO 00000KT 10SM BKN008 BKN013 25/21 A3011 RMK AO2 T02470214
TAF
KAHN 
43nm SE 
241123Z 2412/2512 00000KT 1 1/2SM BR BKN004 FM241400 VRB03KT 6SM BR SCT025 FM241700 07006KT P6SM VCSH BKN030 TEMPO 2419/2423 5SM TSRA BKN030CB FM250200 06008KT P6SM BKN015 FM250700 06008KT P6SM BKN008
KPDK 
46nm SW 
241123Z 2412/2512 00000KT P6SM SCT006 SCT150 FM241400 03003KT P6SM SCT030 SCT250 FM241800 07006KT P6SM VCSH BKN040 TEMPO 2419/2423 5SM TSRA BKN035CB FM250100 08007KT P6SM -SHRA BKN025 FM250600 08008KT P6SM OVC007
NOTAMs
Click for the latest NOTAMs
NOTAMs are issued by the DoD/FAA and will open in a separate window not controlled by AirNav.

 

 
 

Would you like to see your business listed on this page?

 If your business provides an interesting product or service to pilots, flight crews, aircraft, or users of the Deer Crossing Airport, you should consider listing it here.  To start the listing process, click on the button below
 
Add a business
 

Other Pages about Deer Crossing Airport

Update a link
 
Copyright © AirNav, LLC. All rights reserved. Privacy Policy  Contact